sensor_id;sensor_type;location;lat;lon;timestamp;temperature;humidity
4058;DHT22;2044;48.692;9.020;2022-08-19T00:01:13;18.90;99.90
4058;DHT22;2044;48.692;9.020;2022-08-19T00:03:39;18.90;1.00
4058;DHT22;2044;48.692;9.020;2022-08-19T00:06:06;18.90;1.00
4058;DHT22;2044;48.692;9.020;2022-08-19T00:08:34;18.90;99.90
4058;DHT22;2044;48.692;9.020;2022-08-19T00:11:01;18.90;99.90
4058;DHT22;2044;48.692;9.020;2022-08-19T00:13:28;18.90;99.90
4058;DHT22;2044;48.692;9.020;2022-08-19T00:15:55;18.90;1.00
4058;DHT22;2044;48.692;9.020;2022-08-19T00:18:21;18.90;1.00
4058;DHT22;2044;48.692;9.020;2022-08-19T00:20:48;18.80;1.00
4058;DHT22;2044;48.692;9.020;2022-08-19T00:23:15;18.80;1.00
4058;DHT22;2044;48.692;9.020;2022-08-19T00:25:43;18.80;1.00
4058;DHT22;2044;48.692;9.020;2022-08-19T00:28:09;18.80;1.00
4058;DHT22;2044;48.692;9.020;2022-08-19T00:30:36;18.80;1.00
4058;DHT22;2044;48.692;9.020;2022-08-19T00:33:03;18.80;1.00
4058;DHT22;2044;48.692;9.020;2022-08-19T00:35:30;18.80;1.00
4058;DHT22;2044;48.692;9.020;2022-08-19T00:37:57;18.80;1.00
4058;DHT22;2044;48.692;9.020;2022-08-19T00:40:25;18.80;1.00
4058;DHT22;2044;48.692;9.020;2022-08-19T00:42:53;18.80;1.00
4058;DHT22;2044;48.692;9.020;2022-08-19T00:45:23;18.80;1.00
4058;DHT22;2044;48.692;9.020;2022-08-19T00:47:52;18.70;1.00
4058;DHT22;2044;48.692;9.020;2022-08-19T00:50:20;18.70;1.00
4058;DHT22;2044;48.692;9.020;2022-08-19T00:52:49;18.70;1.00
4058;DHT22;2044;48.692;9.020;2022-08-19T00:55:19;18.60;1.00
4058;DHT22;2044;48.692;9.020;2022-08-19T00:57:49;18.70;1.00
4058;DHT22;2044;48.692;9.020;2022-08-19T01:00:23;18.70;1.00
4058;DHT22;2044;48.692;9.020;2022-08-19T01:02:50;18.70;1.00
4058;DHT22;2044;48.692;9.020;2022-08-19T01:05:21;18.70;1.00
4058;DHT22;2044;48.692;9.020;2022-08-19T01:07:49;18.70;1.00
4058;DHT22;2044;48.692;9.020;2022-08-19T01:10:19;18.70;1.00
4058;DHT22;2044;48.692;9.020;2022-08-19T01:12:47;18.70;1.00
4058;DHT22;2044;48.692;9.020;2022-08-19T01:15:16;18.60;1.00
4058;DHT22;2044;48.692;9.020;2022-08-19T01:17:45;18.60;1.00
4058;DHT22;2044;48.692;9.020;2022-08-19T01:20:15;18.60;1.00
4058;DHT22;2044;48.692;9.020;2022-08-19T01:22:46;18.60;1.00
4058;DHT22;2044;48.692;9.020;2022-08-19T01:25:13;18.60;1.00
4058;DHT22;2044;48.692;9.020;2022-08-19T01:27:43;18.60;1.00
4058;DHT22;2044;48.692;9.020;2022-08-19T01:30:12;18.60;1.00
4058;DHT22;2044;48.692;9.020;2022-08-19T01:32:38;18.60;1.00
4058;DHT22;2044;48.692;9.020;2022-08-19T01:35:06;18.60;1.00
4058;DHT22;2044;48.692;9.020;2022-08-19T01:37:44;18.60;1.00
4058;DHT22;2044;48.692;9.020;2022-08-19T01:40:11;18.60;1.00
4058;DHT22;2044;48.692;9.020;2022-08-19T01:42:38;18.60;17.40
4058;DHT22;2044;48.692;9.020;2022-08-19T01:45:07;18.50;74.40
4058;DHT22;2044;48.692;9.020;2022-08-19T01:47:34;18.40;99.90
4058;DHT22;2044;48.692;9.020;2022-08-19T01:50:03;18.30;99.90
4058;DHT22;2044;48.692;9.020;2022-08-19T01:52:30;18.10;99.90
4058;DHT22;2044;48.692;9.020;2022-08-19T01:54:58;18.00;99.90
4058;DHT22;2044;48.692;9.020;2022-08-19T01:57:25;17.90;99.90
4058;DHT22;2044;48.692;9.020;2022-08-19T01:59:51;17.80;99.90
4058;DHT22;2044;48.692;9.020;2022-08-19T02:02:18;17.80;99.90
4058;DHT22;2044;48.692;9.020;2022-08-19T02:04:45;17.70;99.90
4058;DHT22;2044;48.692;9.020;2022-08-19T02:07:12;17.60;99.90
4058;DHT22;2044;48.692;9.020;2022-08-19T02:09:39;17.60;99.90
4058;DHT22;2044;48.692;9.020;2022-08-19T02:12:07;17.60;99.90
4058;DHT22;2044;48.692;9.020;2022-08-19T02:14:34;17.60;99.90
4058;DHT22;2044;48.692;9.020;2022-08-19T02:17:01;17.70;99.90
4058;DHT22;2044;48.692;9.020;2022-08-19T02:19:28;17.70;99.90
4058;DHT22;2044;48.692;9.020;2022-08-19T02:21:57;17.80;99.90
4058;DHT22;2044;48.692;9.020;2022-08-19T02:24:23;17.90;99.90
4058;DHT22;2044;48.692;9.020;2022-08-19T02:26:50;17.90;99.90
4058;DHT22;2044;48.692;9.020;2022-08-19T02:29:19;17.90;99.90
4058;DHT22;2044;48.692;9.020;2022-08-19T02:31:46;17.90;99.90
4058;DHT22;2044;48.692;9.020;2022-08-19T02:34:13;17.90;99.90
4058;DHT22;2044;48.692;9.020;2022-08-19T02:36:40;18.00;99.90
4058;DHT22;2044;48.692;9.020;2022-08-19T02:39:07;18.00;99.90
4058;DHT22;2044;48.692;9.020;2022-08-19T02:41:33;18.00;99.90
4058;DHT22;2044;48.692;9.020;2022-08-19T02:44:03;18.00;99.90
4058;DHT22;2044;48.692;9.020;2022-08-19T02:46:32;18.00;99.90
4058;DHT22;2044;48.692;9.020;2022-08-19T02:49:01;18.00;99.90
4058;DHT22;2044;48.692;9.020;2022-08-19T02:51:31;18.00;99.90
4058;DHT22;2044;48.692;9.020;2022-08-19T02:53:58;18.00;99.90
4058;DHT22;2044;48.692;9.020;2022-08-19T02:56:25;17.90;99.90
4058;DHT22;2044;48.692;9.020;2022-08-19T02:58:53;17.90;99.90
4058;DHT22;2044;48.692;9.020;2022-08-19T03:01:21;17.90;99.90
4058;DHT22;2044;48.692;9.020;2022-08-19T03:03:49;17.80;99.90
4058;DHT22;2044;48.692;9.020;2022-08-19T03:06:16;17.80;99.90
4058;DHT22;2044;48.692;9.020;2022-08-19T03:08:45;17.80;99.90
4058;DHT22;2044;48.692;9.020;2022-08-19T03:11:13;17.80;99.90
4058;DHT22;2044;48.692;9.020;2022-08-19T03:13:40;17.80;99.90
4058;DHT22;2044;48.692;9.020;2022-08-19T03:16:08;17.80;99.90
4058;DHT22;2044;48.692;9.020;2022-08-19T03:18:36;17.80;99.90
4058;DHT22;2044;48.692;9.020;2022-08-19T03:21:06;17.80;99.90
4058;DHT22;2044;48.692;9.020;2022-08-19T03:23:33;17.80;99.90
4058;DHT22;2044;48.692;9.020;2022-08-19T03:26:04;17.70;99.90
4058;DHT22;2044;48.692;9.020;2022-08-19T03:28:31;17.80;99.90
4058;DHT22;2044;48.692;9.020;2022-08-19T03:31:01;17.70;99.90
4058;DHT22;2044;48.692;9.020;2022-08-19T03:33:30;17.70;99.90
4058;DHT22;2044;48.692;9.020;2022-08-19T03:36:07;17.70;99.90
4058;DHT22;2044;48.692;9.020;2022-08-19T03:38:36;17.70;99.90
4058;DHT22;2044;48.692;9.020;2022-08-19T03:41:05;17.60;99.90
4058;DHT22;2044;48.692;9.020;2022-08-19T03:43:33;17.60;99.90
4058;DHT22;2044;48.692;9.020;2022-08-19T03:46:03;17.60;99.90
4058;DHT22;2044;48.692;9.020;2022-08-19T03:48:31;17.60;99.90
4058;DHT22;2044;48.692;9.020;2022-08-19T03:50:58;17.60;99.90
4058;DHT22;2044;48.692;9.020;2022-08-19T03:53:27;17.50;99.90
4058;DHT22;2044;48.692;9.020;2022-08-19T03:55:54;17.50;99.90
4058;DHT22;2044;48.692;9.020;2022-08-19T03:58:21;17.50;99.90
4058;DHT22;2044;48.692;9.020;2022-08-19T04:00:49;17.50;99.90
4058;DHT22;2044;48.692;9.020;2022-08-19T04:03:15;17.50;99.90
4058;DHT22;2044;48.692;9.020;2022-08-19T04:05:44;17.50;99.90
4058;DHT22;2044;48.692;9.020;2022-08-19T04:08:11;17.50;99.90
4058;DHT22;2044;48.692;9.020;2022-08-19T04:10:39;17.50;99.90
4058;DHT22;2044;48.692;9.020;2022-08-19T04:13:07;17.50;99.90
4058;DHT22;2044;48.692;9.020;2022-08-19T04:15:39;17.50;99.90
4058;DHT22;2044;48.692;9.020;2022-08-19T04:18:07;17.50;99.90
4058;DHT22;2044;48.692;9.020;2022-08-19T04:20:39;17.50;99.90
4058;DHT22;2044;48.692;9.020;2022-08-19T04:23:06;17.50;99.90
4058;DHT22;2044;48.692;9.020;2022-08-19T04:25:36;17.50;99.90
4058;DHT22;2044;48.692;9.020;2022-08-19T04:28:05;17.40;99.90
4058;DHT22;2044;48.692;9.020;2022-08-19T04:30:38;17.40;99.90
4058;DHT22;2044;48.692;9.020;2022-08-19T04:33:05;17.40;99.90
4058;DHT22;2044;48.692;9.020;2022-08-19T04:35:36;17.50;99.90
4058;DHT22;2044;48.692;9.020;2022-08-19T04:38:03;17.50;99.90
4058;DHT22;2044;48.692;9.020;2022-08-19T04:40:30;17.50;99.90
4058;DHT22;2044;48.692;9.020;2022-08-19T04:43:15;17.60;99.90
4058;DHT22;2044;48.692;9.020;2022-08-19T04:45:42;17.60;99.90
4058;DHT22;2044;48.692;9.020;2022-08-19T04:48:10;17.60;99.90
4058;DHT22;2044;48.692;9.020;2022-08-19T04:50:40;17.60;99.90
4058;DHT22;2044;48.692;9.020;2022-08-19T04:53:07;17.60;99.90
4058;DHT22;2044;48.692;9.020;2022-08-19T04:55:33;17.70;99.90
4058;DHT22;2044;48.692;9.020;2022-08-19T04:58:00;17.60;99.90
4058;DHT22;2044;48.692;9.020;2022-08-19T05:00:29;17.70;99.90
4058;DHT22;2044;48.692;9.020;2022-08-19T05:02:55;17.70;99.90
4058;DHT22;2044;48.692;9.020;2022-08-19T05:05:22;17.80;99.90
4058;DHT22;2044;48.692;9.020;2022-08-19T05:07:49;17.70;99.90
4058;DHT22;2044;48.692;9.020;2022-08-19T05:10:15;17.80;99.90
4058;DHT22;2044;48.692;9.020;2022-08-19T05:12:42;17.80;99.90
4058;DHT22;2044;48.692;9.020;2022-08-19T05:15:09;17.90;99.90
4058;DHT22;2044;48.692;9.020;2022-08-19T05:17:37;17.90;99.90
4058;DHT22;2044;48.692;9.020;2022-08-19T05:20:24;17.90;99.90
4058;DHT22;2044;48.692;9.020;2022-08-19T05:23:23;17.90;99.90
4058;DHT22;2044;48.692;9.020;2022-08-19T05:25:50;17.90;99.90
4058;DHT22;2044;48.692;9.020;2022-08-19T05:28:17;17.90;99.90
4058;DHT22;2044;48.692;9.020;2022-08-19T05:30:44;18.00;99.90
4058;DHT22;2044;48.692;9.020;2022-08-19T05:33:12;17.90;99.90
4058;DHT22;2044;48.692;9.020;2022-08-19T05:35:39;18.00;99.90
4058;DHT22;2044;48.692;9.020;2022-08-19T05:38:06;18.00;99.90
4058;DHT22;2044;48.692;9.020;2022-08-19T05:40:34;18.00;99.90
4058;DHT22;2044;48.692;9.020;2022-08-19T05:43:02;18.00;99.90
4058;DHT22;2044;48.692;9.020;2022-08-19T05:45:29;18.00;99.90
4058;DHT22;2044;48.692;9.020;2022-08-19T05:47:56;18.00;99.90
4058;DHT22;2044;48.692;9.020;2022-08-19T05:50:25;18.10;99.90
4058;DHT22;2044;48.692;9.020;2022-08-19T05:52:52;18.10;99.90
4058;DHT22;2044;48.692;9.020;2022-08-19T05:55:18;18.10;99.90
4058;DHT22;2044;48.692;9.020;2022-08-19T05:57:48;18.10;99.90
4058;DHT22;2044;48.692;9.020;2022-08-19T06:00:15;18.20;99.90
4058;DHT22;2044;48.692;9.020;2022-08-19T06:02:42;18.20;99.90
4058;DHT22;2044;48.692;9.020;2022-08-19T06:05:09;18.20;99.90
4058;DHT22;2044;48.692;9.020;2022-08-19T06:07:38;18.20;99.90
4058;DHT22;2044;48.692;9.020;2022-08-19T06:10:08;18.20;99.90
4058;DHT22;2044;48.692;9.020;2022-08-19T06:12:36;18.30;99.90
4058;DHT22;2044;48.692;9.020;2022-08-19T06:15:06;18.20;99.90
4058;DHT22;2044;48.692;9.020;2022-08-19T06:17:33;18.30;99.90
4058;DHT22;2044;48.692;9.020;2022-08-19T06:20:00;18.20;99.90
4058;DHT22;2044;48.692;9.020;2022-08-19T06:22:28;18.30;99.90
4058;DHT22;2044;48.692;9.020;2022-08-19T06:24:56;18.30;99.90
4058;DHT22;2044;48.692;9.020;2022-08-19T06:27:22;18.40;99.90
4058;DHT22;2044;48.692;9.020;2022-08-19T06:29:50;18.40;99.90
4058;DHT22;2044;48.692;9.020;2022-08-19T06:32:17;18.50;99.90
4058;DHT22;2044;48.692;9.020;2022-08-19T06:34:44;18.50;99.90
4058;DHT22;2044;48.692;9.020;2022-08-19T06:37:11;18.50;99.90
4058;DHT22;2044;48.692;9.020;2022-08-19T06:39:39;18.50;99.90
4058;DHT22;2044;48.692;9.020;2022-08-19T06:42:08;18.50;99.90
4058;DHT22;2044;48.692;9.020;2022-08-19T06:44:37;18.60;99.90
4058;DHT22;2044;48.692;9.020;2022-08-19T06:47:07;18.50;99.90
4058;DHT22;2044;48.692;9.020;2022-08-19T06:49:34;18.70;95.20
4058;DHT22;2044;48.692;9.020;2022-08-19T06:52:02;18.70;54.00
4058;DHT22;2044;48.692;9.020;2022-08-19T06:54:29;18.70;51.10
4058;DHT22;2044;48.692;9.020;2022-08-19T06:56:57;18.80;25.00
4058;DHT22;2044;48.692;9.020;2022-08-19T06:59:25;19.00;1.00
4058;DHT22;2044;48.692;9.020;2022-08-19T07:01:55;19.10;1.00
4058;DHT22;2044;48.692;9.020;2022-08-19T07:04:24;19.10;1.00
4058;DHT22;2044;48.692;9.020;2022-08-19T07:06:58;19.30;1.00
4058;DHT22;2044;48.692;9.020;2022-08-19T07:09:25;19.40;1.00
4058;DHT22;2044;48.692;9.020;2022-08-19T07:11:53;19.40;99.90
4058;DHT22;2044;48.692;9.020;2022-08-19T07:14:23;19.50;99.90
4058;DHT22;2044;48.692;9.020;2022-08-19T07:16:54;19.40;99.90
4058;DHT22;2044;48.692;9.020;2022-08-19T07:19:24;19.50;99.90
4058;DHT22;2044;48.692;9.020;2022-08-19T07:21:53;19.60;99.90
4058;DHT22;2044;48.692;9.020;2022-08-19T07:24:21;19.60;99.90
4058;DHT22;2044;48.692;9.020;2022-08-19T07:26:50;19.80;99.90
4058;DHT22;2044;48.692;9.020;2022-08-19T07:29:18;20.00;1.00
4058;DHT22;2044;48.692;9.020;2022-08-19T07:31:48;20.00;1.00
4058;DHT22;2044;48.692;9.020;2022-08-19T07:34:17;20.10;1.00
4058;DHT22;2044;48.692;9.020;2022-08-19T07:36:44;20.10;1.00
4058;DHT22;2044;48.692;9.020;2022-08-19T07:39:15;19.90;99.90
4058;DHT22;2044;48.692;9.020;2022-08-19T07:41:43;19.90;99.90
4058;DHT22;2044;48.692;9.020;2022-08-19T07:44:10;19.80;99.90
4058;DHT22;2044;48.692;9.020;2022-08-19T07:46:40;19.80;99.90
4058;DHT22;2044;48.692;9.020;2022-08-19T07:49:08;19.70;99.90
4058;DHT22;2044;48.692;9.020;2022-08-19T07:51:45;19.70;99.90
4058;DHT22;2044;48.692;9.020;2022-08-19T07:54:12;19.60;99.90
4058;DHT22;2044;48.692;9.020;2022-08-19T07:56:39;19.50;99.90
4058;DHT22;2044;48.692;9.020;2022-08-19T07:59:06;19.40;1.00
4058;DHT22;2044;48.692;9.020;2022-08-19T08:01:35;19.30;1.00
4058;DHT22;2044;48.692;9.020;2022-08-19T08:04:02;19.30;1.00
4058;DHT22;2044;48.692;9.020;2022-08-19T08:06:48;19.40;1.00
4058;DHT22;2044;48.692;9.020;2022-08-19T08:09:35;19.40;1.00
4058;DHT22;2044;48.692;9.020;2022-08-19T08:12:04;19.30;31.20
4058;DHT22;2044;48.692;9.020;2022-08-19T08:14:35;19.10;99.90
4058;DHT22;2044;48.692;9.020;2022-08-19T08:17:03;18.70;99.90
4058;DHT22;2044;48.692;9.020;2022-08-19T08:19:30;18.40;99.90
4058;DHT22;2044;48.692;9.020;2022-08-19T08:22:00;18.20;99.90
4058;DHT22;2044;48.692;9.020;2022-08-19T08:24:29;18.20;99.90
4058;DHT22;2044;48.692;9.020;2022-08-19T08:26:58;18.10;99.90
4058;DHT22;2044;48.692;9.020;2022-08-19T08:29:26;18.10;99.90
4058;DHT22;2044;48.692;9.020;2022-08-19T08:31:53;18.10;99.90
4058;DHT22;2044;48.692;9.020;2022-08-19T08:34:20;18.10;99.90
4058;DHT22;2044;48.692;9.020;2022-08-19T08:36:47;18.20;99.90
4058;DHT22;2044;48.692;9.020;2022-08-19T08:39:17;18.30;99.90
4058;DHT22;2044;48.692;9.020;2022-08-19T08:41:56;18.40;99.90
4058;DHT22;2044;48.692;9.020;2022-08-19T08:44:31;18.50;99.90
4058;DHT22;2044;48.692;9.020;2022-08-19T08:47:09;18.50;99.90
4058;DHT22;2044;48.692;9.020;2022-08-19T08:49:43;18.50;99.90
4058;DHT22;2044;48.692;9.020;2022-08-19T08:52:17;18.50;99.90
4058;DHT22;2044;48.692;9.020;2022-08-19T08:54:48;18.50;99.90
4058;DHT22;2044;48.692;9.020;2022-08-19T08:57:20;18.50;99.90
4058;DHT22;2044;48.692;9.020;2022-08-19T08:59:51;18.70;99.90
4058;DHT22;2044;48.692;9.020;2022-08-19T09:02:18;18.90;99.90
4058;DHT22;2044;48.692;9.020;2022-08-19T09:04:45;19.10;99.90
4058;DHT22;2044;48.692;9.020;2022-08-19T09:07:22;19.40;24.60
4058;DHT22;2044;48.692;9.020;2022-08-19T09:09:57;19.60;1.00
4058;DHT22;2044;48.692;9.020;2022-08-19T09:12:35;19.70;1.00
4058;DHT22;2044;48.692;9.020;2022-08-19T09:15:07;19.80;1.00
4058;DHT22;2044;48.692;9.020;2022-08-19T09:17:35;19.80;99.90
4058;DHT22;2044;48.692;9.020;2022-08-19T09:20:08;19.80;99.90
4058;DHT22;2044;48.692;9.020;2022-08-19T09:22:41;20.00;99.90
4058;DHT22;2044;48.692;9.020;2022-08-19T09:25:12;20.00;99.90
4058;DHT22;2044;48.692;9.020;2022-08-19T09:27:40;20.00;99.90
4058;DHT22;2044;48.692;9.020;2022-08-19T09:30:11;19.90;99.90
4058;DHT22;2044;48.692;9.020;2022-08-19T09:32:38;20.00;99.90
4058;DHT22;2044;48.692;9.020;2022-08-19T09:35:08;20.00;99.90
4058;DHT22;2044;48.692;9.020;2022-08-19T09:37:34;19.90;99.90
4058;DHT22;2044;48.692;9.020;2022-08-19T09:40:02;19.90;99.90
4058;DHT22;2044;48.692;9.020;2022-08-19T09:42:30;20.00;99.90
4058;DHT22;2044;48.692;9.020;2022-08-19T09:44:57;20.10;99.90
4058;DHT22;2044;48.692;9.020;2022-08-19T09:47:24;20.20;1.00
4058;DHT22;2044;48.692;9.020;2022-08-19T09:49:50;20.20;1.00
4058;DHT22;2044;48.692;9.020;2022-08-19T09:52:17;20.20;23.50
4058;DHT22;2044;48.692;9.020;2022-08-19T09:54:44;20.20;1.00
4058;DHT22;2044;48.692;9.020;2022-08-19T09:57:10;20.30;99.90
4058;DHT22;2044;48.692;9.020;2022-08-19T09:59:38;20.30;1.00
4058;DHT22;2044;48.692;9.020;2022-08-19T10:02:05;20.40;99.90
4058;DHT22;2044;48.692;9.020;2022-08-19T10:04:32;20.40;90.50
4058;DHT22;2044;48.692;9.020;2022-08-19T10:07:13;20.40;99.90
4058;DHT22;2044;48.692;9.020;2022-08-19T10:09:39;20.50;99.90
4058;DHT22;2044;48.692;9.020;2022-08-19T10:12:07;20.50;14.00
4058;DHT22;2044;48.692;9.020;2022-08-19T10:14:34;20.50;1.00
4058;DHT22;2044;48.692;9.020;2022-08-19T10:17:03;20.50;99.90
4058;DHT22;2044;48.692;9.020;2022-08-19T10:19:30;20.60;99.90
4058;DHT22;2044;48.692;9.020;2022-08-19T10:22:03;20.60;99.90
4058;DHT22;2044;48.692;9.020;2022-08-19T10:24:29;20.70;99.90
4058;DHT22;2044;48.692;9.020;2022-08-19T10:26:56;20.70;1.00
4058;DHT22;2044;48.692;9.020;2022-08-19T10:29:23;20.60;1.00
4058;DHT22;2044;48.692;9.020;2022-08-19T10:31:50;20.60;99.90
4058;DHT22;2044;48.692;9.020;2022-08-19T10:34:18;20.70;99.90
4058;DHT22;2044;48.692;9.020;2022-08-19T10:36:45;20.70;1.00
4058;DHT22;2044;48.692;9.020;2022-08-19T10:39:12;20.70;1.00
4058;DHT22;2044;48.692;9.020;2022-08-19T10:41:39;20.80;1.00
4058;DHT22;2044;48.692;9.020;2022-08-19T10:44:12;20.80;1.00
4058;DHT22;2044;48.692;9.020;2022-08-19T10:46:40;20.90;99.90
4058;DHT22;2044;48.692;9.020;2022-08-19T10:49:09;20.90;99.90
4058;DHT22;2044;48.692;9.020;2022-08-19T10:51:39;21.00;99.90
4058;DHT22;2044;48.692;9.020;2022-08-19T10:54:24;21.10;99.90
4058;DHT22;2044;48.692;9.020;2022-08-19T10:57:11;21.30;1.00
4058;DHT22;2044;48.692;9.020;2022-08-19T10:59:37;21.30;99.90
4058;DHT22;2044;48.692;9.020;2022-08-19T11:02:07;21.50;1.00
4058;DHT22;2044;48.692;9.020;2022-08-19T11:04:35;21.80;99.90
4058;DHT22;2044;48.692;9.020;2022-08-19T11:07:03;22.00;1.00
4058;DHT22;2044;48.692;9.020;2022-08-19T11:09:31;22.10;99.90
4058;DHT22;2044;48.692;9.020;2022-08-19T11:11:57;22.20;52.50
4058;DHT22;2044;48.692;9.020;2022-08-19T11:14:24;22.30;1.00
4058;DHT22;2044;48.692;9.020;2022-08-19T11:16:52;22.30;1.00
4058;DHT22;2044;48.692;9.020;2022-08-19T11:19:21;22.20;1.00
4058;DHT22;2044;48.692;9.020;2022-08-19T11:21:49;22.30;1.00
4058;DHT22;2044;48.692;9.020;2022-08-19T11:24:20;22.30;1.00
4058;DHT22;2044;48.692;9.020;2022-08-19T11:26:48;22.30;1.00
4058;DHT22;2044;48.692;9.020;2022-08-19T11:29:16;22.30;1.00
4058;DHT22;2044;48.692;9.020;2022-08-19T11:31:46;22.50;1.00
4058;DHT22;2044;48.692;9.020;2022-08-19T11:34:17;22.40;99.90
4058;DHT22;2044;48.692;9.020;2022-08-19T11:36:46;22.30;99.90
4058;DHT22;2044;48.692;9.020;2022-08-19T11:39:15;22.30;99.90
4058;DHT22;2044;48.692;9.020;2022-08-19T11:41:43;22.20;99.90
4058;DHT22;2044;48.692;9.020;2022-08-19T11:44:10;22.20;99.90
4058;DHT22;2044;48.692;9.020;2022-08-19T11:46:37;22.20;99.90
4058;DHT22;2044;48.692;9.020;2022-08-19T11:49:06;22.30;99.90
4058;DHT22;2044;48.692;9.020;2022-08-19T11:51:34;22.30;99.90
4058;DHT22;2044;48.692;9.020;2022-08-19T11:54:01;22.20;99.90
4058;DHT22;2044;48.692;9.020;2022-08-19T11:56:29;22.30;99.90
4058;DHT22;2044;48.692;9.020;2022-08-19T11:58:57;22.40;99.90
4058;DHT22;2044;48.692;9.020;2022-08-19T12:01:25;22.40;94.90
4058;DHT22;2044;48.692;9.020;2022-08-19T12:03:54;22.40;1.00
4058;DHT22;2044;48.692;9.020;2022-08-19T12:06:23;22.40;92.20
4058;DHT22;2044;48.692;9.020;2022-08-19T12:08:51;22.50;1.00
4058;DHT22;2044;48.692;9.020;2022-08-19T12:11:20;22.70;1.00
4058;DHT22;2044;48.692;9.020;2022-08-19T12:13:47;22.80;1.00
4058;DHT22;2044;48.692;9.020;2022-08-19T12:16:17;22.90;99.90
4058;DHT22;2044;48.692;9.020;2022-08-19T12:18:44;23.00;99.90
4058;DHT22;2044;48.692;9.020;2022-08-19T12:21:12;23.00;99.90
4058;DHT22;2044;48.692;9.020;2022-08-19T12:23:39;23.30;99.90
4058;DHT22;2044;48.692;9.020;2022-08-19T12:26:08;23.60;99.90
4058;DHT22;2044;48.692;9.020;2022-08-19T12:28:35;23.90;1.00
4058;DHT22;2044;48.692;9.020;2022-08-19T12:31:02;23.90;1.00
4058;DHT22;2044;48.692;9.020;2022-08-19T12:33:30;24.10;1.00
4058;DHT22;2044;48.692;9.020;2022-08-19T12:36:00;24.30;1.00
4058;DHT22;2044;48.692;9.020;2022-08-19T12:38:28;24.50;1.00
4058;DHT22;2044;48.692;9.020;2022-08-19T12:40:55;24.60;1.00
4058;DHT22;2044;48.692;9.020;2022-08-19T12:43:22;24.50;1.00
4058;DHT22;2044;48.692;9.020;2022-08-19T12:45:48;24.50;1.00
4058;DHT22;2044;48.692;9.020;2022-08-19T12:48:16;24.80;1.00
4058;DHT22;2044;48.692;9.020;2022-08-19T12:50:45;24.60;1.00
4058;DHT22;2044;48.692;9.020;2022-08-19T12:53:12;24.80;1.00
4058;DHT22;2044;48.692;9.020;2022-08-19T12:55:39;24.70;1.00
4058;DHT22;2044;48.692;9.020;2022-08-19T12:58:05;24.60;1.00
4058;DHT22;2044;48.692;9.020;2022-08-19T13:00:32;24.30;1.00
4058;DHT22;2044;48.692;9.020;2022-08-19T13:03:00;24.00;1.00
4058;DHT22;2044;48.692;9.020;2022-08-19T13:05:32;23.90;1.00
4058;DHT22;2044;48.692;9.020;2022-08-19T13:08:01;23.70;1.00
4058;DHT22;2044;48.692;9.020;2022-08-19T13:10:30;23.60;1.00
4058;DHT22;2044;48.692;9.020;2022-08-19T13:12:57;23.50;1.00
4058;DHT22;2044;48.692;9.020;2022-08-19T13:15:25;23.40;1.00
4058;DHT22;2044;48.692;9.020;2022-08-19T13:17:54;23.50;1.00
4058;DHT22;2044;48.692;9.020;2022-08-19T13:20:22;23.50;1.00
4058;DHT22;2044;48.692;9.020;2022-08-19T13:22:49;23.80;1.00
4058;DHT22;2044;48.692;9.020;2022-08-19T13:25:18;24.00;1.00
4058;DHT22;2044;48.692;9.020;2022-08-19T13:27:45;24.20;1.00
4058;DHT22;2044;48.692;9.020;2022-08-19T13:30:15;24.20;1.00
4058;DHT22;2044;48.692;9.020;2022-08-19T13:33:00;24.10;99.90
4058;DHT22;2044;48.692;9.020;2022-08-19T13:35:48;24.00;99.90
4058;DHT22;2044;48.692;9.020;2022-08-19T13:38:18;24.00;99.90
4058;DHT22;2044;48.692;9.020;2022-08-19T13:40:47;24.00;99.90
4058;DHT22;2044;48.692;9.020;2022-08-19T13:43:16;23.90;99.90
4058;DHT22;2044;48.692;9.020;2022-08-19T13:45:43;23.80;99.90
4058;DHT22;2044;48.692;9.020;2022-08-19T13:48:10;23.80;99.90
4058;DHT22;2044;48.692;9.020;2022-08-19T13:50:40;23.70;1.00
4058;DHT22;2044;48.692;9.020;2022-08-19T13:53:08;23.80;1.00
4058;DHT22;2044;48.692;9.020;2022-08-19T13:55:39;24.00;1.00
4058;DHT22;2044;48.692;9.020;2022-08-19T13:58:08;24.20;1.00
4058;DHT22;2044;48.692;9.020;2022-08-19T14:00:38;24.50;1.00
4058;DHT22;2044;48.692;9.020;2022-08-19T14:03:06;24.40;1.00
4058;DHT22;2044;48.692;9.020;2022-08-19T14:05:33;24.20;1.00
4058;DHT22;2044;48.692;9.020;2022-08-19T14:08:00;24.10;1.00
4058;DHT22;2044;48.692;9.020;2022-08-19T14:10:28;24.10;1.00
4058;DHT22;2044;48.692;9.020;2022-08-19T14:13:00;24.10;1.00
4058;DHT22;2044;48.692;9.020;2022-08-19T14:15:29;24.20;1.00
4058;DHT22;2044;48.692;9.020;2022-08-19T14:17:57;24.80;1.00
4058;DHT22;2044;48.692;9.020;2022-08-19T14:20:24;25.10;99.90
4058;DHT22;2044;48.692;9.020;2022-08-19T14:22:50;25.50;99.90
4058;DHT22;2044;48.692;9.020;2022-08-19T14:25:20;25.60;99.90
4058;DHT22;2044;48.692;9.020;2022-08-19T14:27:48;25.40;99.90
4058;DHT22;2044;48.692;9.020;2022-08-19T14:30:18;25.10;99.90
4058;DHT22;2044;48.692;9.020;2022-08-19T14:32:46;24.70;99.90
4058;DHT22;2044;48.692;9.020;2022-08-19T14:35:14;24.50;99.90
4058;DHT22;2044;48.692;9.020;2022-08-19T14:37:43;24.20;99.90
4058;DHT22;2044;48.692;9.020;2022-08-19T14:40:11;24.00;99.90
4058;DHT22;2044;48.692;9.020;2022-08-19T14:42:38;23.90;99.90
4058;DHT22;2044;48.692;9.020;2022-08-19T14:45:07;23.90;99.90
4058;DHT22;2044;48.692;9.020;2022-08-19T14:47:34;24.00;99.90
4058;DHT22;2044;48.692;9.020;2022-08-19T14:50:03;24.30;99.90
4058;DHT22;2044;48.692;9.020;2022-08-19T14:52:31;24.50;99.90
4058;DHT22;2044;48.692;9.020;2022-08-19T14:54:58;24.80;99.90
4058;DHT22;2044;48.692;9.020;2022-08-19T14:57:25;25.00;99.90
4058;DHT22;2044;48.692;9.020;2022-08-19T14:59:52;25.10;99.90
4058;DHT22;2044;48.692;9.020;2022-08-19T15:02:19;25.40;99.90
4058;DHT22;2044;48.692;9.020;2022-08-19T15:04:46;25.30;99.90
4058;DHT22;2044;48.692;9.020;2022-08-19T15:07:14;25.20;99.90
4058;DHT22;2044;48.692;9.020;2022-08-19T15:09:40;25.00;99.90
4058;DHT22;2044;48.692;9.020;2022-08-19T15:12:07;25.00;99.90
4058;DHT22;2044;48.692;9.020;2022-08-19T15:14:36;25.10;99.90
4058;DHT22;2044;48.692;9.020;2022-08-19T15:17:04;25.30;99.90
4058;DHT22;2044;48.692;9.020;2022-08-19T15:19:31;25.40;99.90
4058;DHT22;2044;48.692;9.020;2022-08-19T15:21:59;25.50;99.90
4058;DHT22;2044;48.692;9.020;2022-08-19T15:24:27;25.50;99.90
4058;DHT22;2044;48.692;9.020;2022-08-19T15:26:54;25.70;99.90
4058;DHT22;2044;48.692;9.020;2022-08-19T15:29:21;26.10;99.90
4058;DHT22;2044;48.692;9.020;2022-08-19T15:31:50;26.30;99.90
4058;DHT22;2044;48.692;9.020;2022-08-19T15:34:17;26.70;99.90
4058;DHT22;2044;48.692;9.020;2022-08-19T15:36:44;27.40;99.90
4058;DHT22;2044;48.692;9.020;2022-08-19T15:39:10;27.80;99.90
4058;DHT22;2044;48.692;9.020;2022-08-19T15:41:39;27.90;99.90
4058;DHT22;2044;48.692;9.020;2022-08-19T15:44:09;28.00;99.90
4058;DHT22;2044;48.692;9.020;2022-08-19T15:46:40;28.40;99.90
4058;DHT22;2044;48.692;9.020;2022-08-19T15:49:07;28.50;99.90
4058;DHT22;2044;48.692;9.020;2022-08-19T15:51:35;28.50;99.90
4058;DHT22;2044;48.692;9.020;2022-08-19T15:54:05;28.30;99.90
4058;DHT22;2044;48.692;9.020;2022-08-19T15:56:32;28.40;99.90
4058;DHT22;2044;48.692;9.020;2022-08-19T15:59:27;28.10;99.90
4058;DHT22;2044;48.692;9.020;2022-08-19T16:02:12;28.00;99.90
4058;DHT22;2044;48.692;9.020;2022-08-19T16:04:56;28.10;99.90
4058;DHT22;2044;48.692;9.020;2022-08-19T16:07:40;28.00;99.90
4058;DHT22;2044;48.692;9.020;2022-08-19T16:10:07;27.70;99.90
4058;DHT22;2044;48.692;9.020;2022-08-19T16:12:34;27.80;99.90
4058;DHT22;2044;48.692;9.020;2022-08-19T16:15:05;27.40;99.90
4058;DHT22;2044;48.692;9.020;2022-08-19T16:17:32;27.20;99.90